Terminal Aerodrome Forecast
Issued by NWS Cleveland, OH

Home | Current Version | Previous Version | Graphics & Text | Print | Product List | Glossary On
Versions: 1 2 3 4 5 6 7 8 9 10 11 12 13 14 15 16 17 18 19 20 21 22
000
FTUS41 KCLE 262300
TAFERI
TAF
KERI 262335Z 2700/2724 08006KT P6SM OVC025
     FM270700 04006KT 6SM -SHSN SCT012 OVC020
     FM271200 32006KT P6SM OVC025
     FM272000 30008KT 2SM -SHSN SCT008 OVC012=

USA.gov is the U.S. government's official web portal to all federal, state and local government web resources and services.